createdAt,value
2019-01-26T00:00:33.938Z,12.43
2019-01-26T00:03:05.624Z,9.13
2019-01-26T00:05:37.897Z,14.43
2019-01-26T00:08:09.139Z,10.33
2019-01-26T00:10:40.376Z,14.57
2019-01-26T00:13:11.629Z,12.03
2019-01-26T00:15:42.916Z,8.43
2019-01-26T00:18:14.132Z,12.13
2019-01-26T00:20:45.407Z,11.53
2019-01-26T00:23:16.623Z,15.07
2019-01-26T00:25:47.811Z,12.17
2019-01-26T00:28:19.000Z,10.70
2019-01-26T00:30:50.323Z,10.93
2019-01-26T00:33:21.545Z,12.90
2019-01-26T00:35:52.771Z,13.43
2019-01-26T00:38:24.423Z,13.20
2019-01-26T00:40:55.625Z,10.00
2019-01-26T00:43:26.830Z,10.67
2019-01-26T00:45:58.094Z,9.33
2019-01-26T00:48:29.425Z,10.30
2019-01-26T00:51:00.805Z,10.60
2019-01-26T00:53:33.103Z,11.83
2019-01-26T00:56:04.397Z,12.17
2019-01-26T00:58:35.604Z,12.37
2019-01-26T01:01:06.803Z,10.20
2019-01-26T01:03:38.038Z,10.60
2019-01-26T01:06:09.252Z,11.43
2019-01-26T01:08:40.470Z,8.23
2019-01-26T01:11:11.683Z,9.97
2019-01-26T01:13:42.873Z,10.90
2019-01-26T01:16:14.073Z,9.23
2019-01-26T01:18:45.479Z,12.88
2019-01-26T01:21:16.727Z,9.30
2019-01-26T01:23:47.928Z,10.07
2019-01-26T01:26:19.140Z,14.33
2019-01-26T01:28:50.416Z,10.50
2019-01-26T01:31:21.626Z,12.20
2019-01-26T01:33:52.824Z,9.37
2019-01-26T01:36:24.042Z,13.37
2019-01-26T01:38:55.315Z,8.70
2019-01-26T01:41:26.585Z,13.03
2019-01-26T01:43:57.815Z,14.60
2019-01-26T01:46:29.030Z,11.77
2019-01-26T01:49:00.229Z,12.27
2019-01-26T01:51:31.423Z,8.90
2019-01-26T01:54:02.636Z,14.80
2019-01-26T01:56:33.953Z,12.17
2019-01-26T01:59:05.184Z,10.93
2019-01-26T02:01:36.846Z,15.57
2019-01-26T02:04:08.033Z,9.20
2019-01-26T02:06:39.283Z,14.10
2019-01-26T02:09:10.826Z,8.77
2019-01-26T02:11:42.809Z,10.20
2019-01-26T02:14:14.134Z,10.07
2019-01-26T02:16:50.024Z,7.53
2019-01-26T02:19:18.604Z,11.93
2019-01-26T02:21:49.831Z,16.07
2019-01-26T02:24:20.965Z,12.00
2019-01-26T02:26:52.881Z,17.73
2019-01-26T02:29:24.163Z,9.47
2019-01-26T02:31:55.468Z,12.20
2019-01-26T02:34:26.665Z,9.70
2019-01-26T02:36:57.883Z,10.50
2019-01-26T02:39:29.072Z,8.50
2019-01-26T02:42:00.432Z,9.48
2019-01-26T02:44:31.544Z,12.20
2019-01-26T02:47:02.776Z,11.63
2019-01-26T02:49:34.377Z,12.20
2019-01-26T02:52:05.632Z,10.37
2019-01-26T02:54:36.943Z,10.23
2019-01-26T02:57:08.130Z,10.67
2019-01-26T02:59:39.451Z,11.47
2019-01-26T03:02:10.704Z,12.00
2019-01-26T03:04:42.480Z,11.63
2019-01-26T03:07:13.975Z,7.53
2019-01-26T03:09:45.186Z,11.53
2019-01-26T03:12:16.412Z,12.57
2019-01-26T03:14:48.063Z,12.83
2019-01-26T03:17:19.271Z,6.90
2019-01-26T03:19:50.454Z,8.40
2019-01-26T03:22:22.467Z,7.75
2019-01-26T03:24:54.019Z,8.77
2019-01-26T03:27:25.255Z,8.20
2019-01-26T03:29:56.420Z,7.43
2019-01-26T03:32:27.880Z,7.10
2019-01-26T03:34:58.984Z,7.30
2019-01-26T03:37:30.322Z,7.10
2019-01-26T03:40:01.496Z,10.83
2019-01-26T03:42:32.657Z,7.00
2019-01-26T03:45:04.280Z,7.07
2019-01-26T03:47:35.721Z,6.43
2019-01-26T03:50:07.552Z,10.03
2019-01-26T03:52:38.782Z,4.77
2019-01-26T03:55:11.339Z,9.60
2019-01-26T03:57:42.711Z,7.83
2019-01-26T04:00:19.402Z,7.77
2019-01-26T04:02:50.613Z,5.03
2019-01-26T04:05:21.815Z,9.43
2019-01-26T04:07:53.001Z,8.07
2019-01-26T04:10:24.334Z,6.80
2019-01-26T04:12:55.520Z,7.27
2019-01-26T04:15:26.710Z,5.90
2019-01-26T04:17:57.910Z,6.40
2019-01-26T04:20:29.022Z,6.63
2019-01-26T04:23:00.341Z,7.77
2019-01-26T04:25:31.508Z,8.27
2019-01-26T04:28:03.066Z,9.87
2019-01-26T04:30:34.383Z,6.27
2019-01-26T04:33:05.956Z,7.23
2019-01-26T04:35:37.363Z,8.73
2019-01-26T04:38:08.557Z,8.40
2019-01-26T04:40:39.754Z,8.97
2019-01-26T04:43:10.979Z,8.67
2019-01-26T04:45:42.328Z,8.90
2019-01-26T04:48:13.901Z,5.30
2019-01-26T04:50:45.246Z,5.37
2019-01-26T04:53:16.689Z,5.63
2019-01-26T04:55:47.912Z,7.13
2019-01-26T04:58:19.020Z,7.40
2019-01-26T05:00:50.312Z,6.65
2019-01-26T05:03:21.489Z,9.03
2019-01-26T05:05:53.072Z,6.63
2019-01-26T05:08:24.327Z,10.23
2019-01-26T05:10:55.560Z,6.43
2019-01-26T05:13:26.736Z,9.47
2019-01-26T05:15:57.973Z,6.70
2019-01-26T05:18:29.207Z,7.43
2019-01-26T05:21:00.442Z,9.43
2019-01-26T05:23:31.732Z,7.80
2019-01-26T05:26:02.921Z,10.03
2019-01-26T05:28:34.189Z,8.53
2019-01-26T05:31:05.416Z,7.40
2019-01-26T05:33:36.829Z,7.73
2019-01-26T05:36:08.032Z,6.33
2019-01-26T05:38:39.365Z,9.13
2019-01-26T05:41:10.541Z,6.97
2019-01-26T05:43:41.733Z,6.10
2019-01-26T05:46:12.942Z,6.20
2019-01-26T05:48:44.150Z,8.03
2019-01-26T05:51:15.432Z,6.23
2019-01-26T05:53:46.650Z,8.07
2019-01-26T05:56:17.824Z,8.10
2019-01-26T05:58:49.074Z,5.97
2019-01-26T06:01:20.368Z,9.88
2019-01-26T06:03:51.562Z,7.07
2019-01-26T06:06:22.760Z,7.23
2019-01-26T06:08:53.949Z,8.57
2019-01-26T06:11:25.179Z,6.00
2019-01-26T06:13:56.952Z,5.10
2019-01-26T06:16:28.131Z,6.13
2019-01-26T06:18:59.347Z,5.13
2019-01-26T06:21:30.521Z,7.73
2019-01-26T06:24:01.745Z,7.07
2019-01-26T06:26:32.927Z,5.00
2019-01-26T06:29:04.135Z,4.57
2019-01-26T06:31:35.310Z,5.57
2019-01-26T06:34:06.484Z,5.17
2019-01-26T06:36:38.388Z,5.93
2019-01-26T06:39:09.618Z,5.27
2019-01-26T06:41:40.882Z,9.63
2019-01-26T06:44:12.102Z,5.00
2019-01-26T06:46:44.013Z,5.13
2019-01-26T06:49:15.186Z,4.83
2019-01-26T06:51:55.620Z,6.93
2019-01-26T06:54:26.836Z,4.70
2019-01-26T06:56:58.061Z,6.47
2019-01-26T06:59:29.344Z,5.17
2019-01-26T07:02:00.535Z,4.93
2019-01-26T07:04:50.631Z,5.43
2019-01-26T07:07:22.339Z,6.55
2019-01-26T07:09:54.241Z,6.63
2019-01-26T07:12:25.446Z,6.80
2019-01-26T07:14:56.939Z,5.43
2019-01-26T07:17:28.214Z,5.47
2019-01-26T07:19:59.408Z,8.50
2019-01-26T07:22:31.098Z,6.37
2019-01-26T07:25:02.702Z,5.10
2019-01-26T07:27:33.812Z,5.03
2019-01-26T07:30:07.414Z,5.93
2019-01-26T07:32:38.791Z,5.20
2019-01-26T07:35:09.959Z,5.83
2019-01-26T07:37:41.305Z,9.43
2019-01-26T07:40:16.180Z,5.93
2019-01-26T07:42:49.694Z,6.57
2019-01-26T07:45:21.075Z,5.00
2019-01-26T07:47:52.711Z,5.47
2019-01-26T07:50:25.307Z,4.63
2019-01-26T07:52:56.688Z,5.37
2019-01-26T07:55:27.837Z,5.47
2019-01-26T07:57:59.278Z,4.50
2019-01-26T08:00:30.464Z,6.97
2019-01-26T08:03:02.640Z,4.60
2019-01-26T08:05:34.021Z,4.30
2019-01-26T08:08:05.370Z,4.13
2019-01-26T08:10:36.686Z,4.33
2019-01-26T08:13:08.358Z,4.07
2019-01-26T08:15:39.597Z,3.60
2019-01-26T08:18:11.086Z,3.53
2019-01-26T08:20:42.734Z,3.80
2019-01-26T08:23:14.024Z,3.50
2019-01-26T08:25:45.272Z,5.12
2019-01-26T08:28:16.501Z,3.93
2019-01-26T08:30:47.947Z,4.07
2019-01-26T08:33:19.255Z,3.50
2019-01-26T08:35:50.432Z,3.43
2019-01-26T08:38:21.662Z,3.67
2019-01-26T08:40:52.885Z,4.23
2019-01-26T08:43:25.674Z,3.57
2019-01-26T08:45:56.840Z,4.30
2019-01-26T08:48:31.315Z,4.67
2019-01-26T08:51:02.353Z,4.93
2019-01-26T08:53:33.976Z,4.43
2019-01-26T08:56:05.513Z,4.53
2019-01-26T08:58:36.733Z,6.70
2019-01-26T09:01:07.893Z,3.97
2019-01-26T09:03:59.149Z,4.17
2019-01-26T09:06:42.834Z,5.23
2019-01-26T09:09:14.709Z,4.47
2019-01-26T09:11:46.061Z,4.37
2019-01-26T09:14:19.657Z,3.33
2019-01-26T09:16:50.839Z,3.37
2019-01-26T09:19:22.641Z,5.07
2019-01-26T09:21:53.894Z,3.70
2019-01-26T09:24:25.269Z,3.30
2019-01-26T09:26:56.625Z,3.37
2019-01-26T09:29:27.766Z,3.10
2019-01-26T09:31:58.886Z,3.17
2019-01-26T09:34:29.964Z,3.00
2019-01-26T09:37:01.201Z,3.20
2019-01-26T09:39:32.625Z,3.50
2019-01-26T09:42:03.837Z,3.40
2019-01-26T09:44:35.297Z,3.53
2019-01-26T09:47:06.468Z,3.50
2019-01-26T09:49:37.667Z,2.93
2019-01-26T09:52:08.827Z,2.60
2019-01-26T09:54:40.236Z,3.07
2019-01-26T09:57:11.372Z,3.10
2019-01-26T09:59:43.387Z,2.77
2019-01-26T10:02:14.579Z,2.80
2019-01-26T10:04:45.673Z,2.80
2019-01-26T10:07:16.847Z,2.70
2019-01-26T10:09:49.383Z,3.13
2019-01-26T10:12:23.614Z,3.33
2019-01-26T10:14:58.030Z,4.97
2019-01-26T10:17:29.209Z,5.10
2019-01-26T10:20:00.610Z,3.80
2019-01-26T10:22:31.821Z,4.40
2019-01-26T10:25:04.045Z,4.35
2019-01-26T10:27:35.296Z,5.17
2019-01-26T10:30:08.997Z,4.20
2019-01-26T10:32:43.129Z,5.23
2019-01-26T10:35:14.669Z,4.70
2019-01-26T10:37:49.937Z,5.90
2019-01-26T10:40:38.992Z,5.17
2019-01-26T10:43:10.387Z,4.87
2019-01-26T10:45:41.536Z,5.20
2019-01-26T10:48:15.936Z,4.77
2019-01-26T10:50:50.893Z,4.30
2019-01-26T10:53:26.582Z,4.43
2019-01-26T10:56:02.777Z,4.73
2019-01-26T10:58:35.022Z,6.03
2019-01-26T11:01:06.689Z,4.37
2019-01-26T11:03:41.373Z,5.33
2019-01-26T11:06:12.823Z,4.97
2019-01-26T11:08:44.021Z,5.03
2019-01-26T11:11:15.440Z,5.33
2019-01-26T11:13:46.649Z,5.23
2019-01-26T11:16:17.940Z,5.03
2019-01-26T11:18:49.008Z,4.70
2019-01-26T11:21:20.262Z,4.70
2019-01-26T11:23:53.446Z,5.10
2019-01-26T11:26:25.334Z,6.47
2019-01-26T11:28:56.514Z,5.27
2019-01-26T11:31:28.055Z,6.47
2019-01-26T11:33:59.449Z,5.87
2019-01-26T11:36:30.658Z,8.10
2019-01-26T11:39:03.677Z,10.83
2019-01-26T11:41:35.340Z,8.40
2019-01-26T11:44:07.042Z,9.17
2019-01-26T11:46:45.688Z,6.83
2019-01-26T11:49:16.870Z,5.40
2019-01-26T11:52:07.490Z,5.87
2019-01-26T11:54:57.556Z,5.50
2019-01-26T11:57:32.831Z,5.30
2019-01-26T12:00:28.279Z,4.83
2019-01-26T12:03:05.477Z,5.07
2019-01-26T12:05:42.129Z,6.07
2019-01-26T12:08:14.084Z,6.63
2019-01-26T12:10:45.275Z,7.30
2019-01-26T12:13:16.438Z,5.73
2019-01-26T12:15:47.631Z,7.20
2019-01-26T12:18:18.796Z,5.53
2019-01-26T12:20:49.963Z,6.07
2019-01-26T12:23:21.125Z,9.13
2019-01-26T12:25:52.897Z,6.53
2019-01-26T12:28:24.227Z,7.97
2019-01-26T12:30:56.892Z,8.37
2019-01-26T12:33:28.154Z,5.60
2019-01-26T12:35:59.390Z,8.70
2019-01-26T12:38:30.821Z,7.63
2019-01-26T12:41:02.725Z,5.57
2019-01-26T12:43:34.052Z,6.77
2019-01-26T12:46:05.308Z,5.50
2019-01-26T12:48:37.439Z,6.73
2019-01-26T12:51:53.070Z,5.53
2019-01-26T12:54:15.675Z,6.93
2019-01-26T12:56:46.977Z,6.57
2019-01-26T12:59:18.138Z,5.90
2019-01-26T13:01:49.422Z,8.57
2019-01-26T13:04:20.581Z,5.27
2019-01-26T13:06:51.773Z,7.47
2019-01-26T13:09:22.943Z,5.87
2019-01-26T13:11:54.271Z,5.00
2019-01-26T13:14:25.342Z,6.97
2019-01-26T13:16:56.503Z,6.40
2019-01-26T13:19:27.695Z,6.83
2019-01-26T13:21:59.139Z,7.50
2019-01-26T14:20:23.989Z,12.57
2019-01-26T14:22:55.316Z,12.97
2019-01-26T14:25:26.577Z,13.30
2019-01-26T14:27:57.782Z,10.87
2019-01-26T14:30:34.678Z,10.48
2019-01-26T14:33:06.008Z,11.40
2019-01-26T14:35:38.697Z,9.43
2019-01-26T14:38:09.927Z,12.27
2019-01-26T14:40:41.097Z,11.63
2019-01-26T14:43:12.708Z,11.77
2019-01-26T14:45:44.306Z,7.93
2019-01-26T14:48:21.779Z,16.63
2019-01-26T14:50:53.580Z,11.33
2019-01-26T14:53:25.106Z,14.67
2019-01-26T14:55:56.533Z,14.63
2019-01-26T14:58:27.763Z,11.80
2019-01-26T15:00:59.318Z,13.43
2019-01-26T15:03:30.680Z,13.00
2019-01-26T15:06:02.434Z,16.60
2019-01-26T15:08:34.048Z,15.80
2019-01-26T15:11:05.357Z,16.37
2019-01-26T15:13:36.761Z,18.97
2019-01-26T15:16:10.399Z,16.77
2019-01-26T15:18:42.289Z,16.77
2019-01-26T15:21:13.677Z,18.50
2019-01-26T15:23:44.884Z,14.87
2019-01-26T15:26:16.162Z,19.03
2019-01-26T15:28:49.438Z,21.57
2019-01-26T15:31:20.592Z,20.00
2019-01-26T15:33:52.150Z,22.97
2019-01-26T15:36:23.636Z,19.23
2019-01-26T15:38:54.947Z,28.23
2019-01-26T15:41:26.189Z,18.27
2019-01-26T15:43:59.453Z,20.87
2019-01-26T15:46:30.608Z,23.67
2019-01-26T15:49:02.448Z,24.47
2019-01-26T15:51:33.668Z,18.47
2019-01-26T15:54:05.233Z,19.40
2019-01-26T15:56:38.244Z,22.85
2019-01-26T15:59:09.603Z,17.93
2019-01-26T16:01:41.930Z,23.77
2019-01-26T16:04:14.945Z,27.10
2019-01-26T16:06:46.519Z,24.77
2019-01-26T16:09:17.704Z,26.83
2019-01-26T16:11:48.918Z,21.03
2019-01-26T16:14:24.798Z,24.10
2019-01-26T16:16:55.998Z,19.70
2019-01-26T16:19:27.254Z,17.40
2019-01-26T16:22:01.214Z,20.90
2019-01-26T16:24:34.723Z,24.43
2019-01-26T16:27:08.698Z,22.17
2019-01-26T16:29:39.910Z,23.37
2019-01-26T16:32:11.110Z,20.77
2019-01-26T16:34:44.046Z,21.73
2019-01-26T16:37:21.204Z,22.93
2019-01-26T16:39:52.979Z,23.83
2019-01-26T16:42:25.299Z,23.07
2019-01-26T16:44:56.519Z,19.43
2019-01-26T16:47:27.714Z,24.03
2019-01-26T16:49:58.918Z,20.17
2019-01-26T16:52:30.198Z,24.03
2019-01-26T16:55:01.421Z,29.63
2019-01-26T16:57:35.415Z,21.50
2019-01-26T17:00:12.494Z,23.40
2019-01-26T17:02:44.340Z,26.17
2019-01-26T17:05:17.172Z,25.97
2019-01-26T17:07:53.217Z,25.17
2019-01-26T17:10:26.041Z,18.57
2019-01-26T17:12:57.268Z,28.87
2019-01-26T17:15:28.491Z,31.00
2019-01-26T17:17:59.731Z,30.00
2019-01-26T17:20:35.162Z,27.87
2019-01-26T17:23:17.150Z,23.30
2019-01-26T17:25:48.460Z,28.30
2019-01-26T17:28:19.681Z,24.83
2019-01-26T17:30:50.903Z,21.10
2019-01-26T17:33:22.117Z,25.03
2019-01-26T17:35:53.310Z,18.93
2019-01-26T17:38:24.612Z,18.87
2019-01-26T17:40:55.688Z,23.47
2019-01-26T17:43:27.040Z,27.97
2019-01-26T17:45:58.226Z,25.67
2019-01-26T17:48:29.500Z,24.70
2019-01-26T17:51:00.707Z,22.73
2019-01-26T17:53:31.900Z,32.63
2019-01-26T18:03:42.292Z,35.87
2019-01-26T18:06:32.085Z,31.30
2019-01-26T18:09:21.330Z,32.27
2019-01-26T18:12:10.273Z,27.80
2019-01-26T18:15:00.879Z,32.33
2019-01-26T18:17:51.239Z,28.53
2019-01-26T18:20:41.127Z,32.53
2019-01-26T18:23:32.777Z,31.90
2019-01-26T18:26:41.913Z,36.20
2019-01-26T18:29:53.519Z,35.90
2019-01-26T18:32:26.774Z,33.87
2019-01-26T18:35:16.833Z,27.10
2019-01-26T18:38:09.573Z,33.37
2019-01-26T18:41:00.744Z,30.37
2019-01-26T18:43:50.078Z,30.27
2019-01-26T18:46:41.551Z,36.73
2019-01-26T18:49:33.195Z,31.60
2019-01-26T18:52:22.732Z,33.13
2019-01-26T18:55:12.830Z,38.70
2019-01-26T18:58:24.192Z,35.10
2019-01-26T19:01:32.953Z,30.70
2019-01-26T19:04:41.887Z,38.60
2019-01-26T19:07:54.018Z,34.87
2019-01-26T19:10:59.707Z,32.47
2019-01-26T19:14:00.473Z,35.47
2019-01-26T19:20:29.306Z,37.60
2019-01-26T19:23:43.933Z,35.17
2019-01-26T19:26:54.806Z,36.07
2019-01-26T19:29:36.974Z,36.80
2019-01-26T19:32:15.482Z,37.50
2019-01-26T19:34:56.515Z,39.50
2019-01-26T19:37:49.677Z,42.13
2019-01-26T19:40:18.726Z,38.47
2019-01-26T19:42:52.521Z,38.10
2019-01-26T19:45:36.057Z,38.70
2019-01-26T19:48:11.236Z,40.03
2019-01-26T19:50:47.515Z,45.07
2019-01-26T19:53:27.706Z,44.80
2019-01-26T19:56:02.973Z,34.63
2019-01-26T19:58:38.147Z,38.70
2019-01-26T20:01:10.428Z,37.00
2019-01-26T20:03:42.771Z,32.33
2019-01-26T20:06:18.146Z,36.13
2019-01-26T20:09:01.760Z,31.60
2019-01-26T20:11:37.184Z,32.97
2019-01-26T20:14:29.142Z,33.20
2019-01-26T20:17:07.220Z,38.13
2019-01-26T20:20:00.199Z,32.83
2019-01-26T20:22:52.062Z,32.60
2019-01-26T20:25:30.383Z,30.97
2019-01-26T20:28:01.659Z,30.67
2019-01-26T20:30:39.082Z,41.37
2019-01-26T20:33:14.592Z,33.33
2019-01-26T20:35:49.964Z,29.57
2019-01-26T20:38:29.817Z,30.80
2019-01-26T20:41:02.190Z,36.77
2019-01-26T20:43:41.463Z,29.87
2019-01-26T20:46:20.209Z,31.45
2019-01-26T20:48:51.485Z,25.00
2019-01-26T20:51:24.910Z,29.07
2019-01-26T20:53:58.799Z,27.47
2019-01-26T20:56:32.125Z,29.80
2019-01-26T20:59:03.912Z,34.73
2019-01-26T21:01:39.761Z,32.17
2019-01-26T21:04:11.059Z,28.20
2019-01-26T21:06:42.898Z,27.10
2019-01-26T21:09:14.100Z,31.00
2019-01-26T21:11:45.870Z,31.30
2019-01-26T21:14:20.188Z,28.53
2019-01-26T21:16:51.408Z,29.40
2019-01-26T21:19:27.238Z,28.77
2019-01-26T21:21:58.516Z,28.73
2019-01-26T21:24:32.545Z,33.87
2019-01-26T21:27:04.040Z,30.33
2019-01-26T21:29:35.391Z,27.50
2019-01-26T21:32:06.915Z,32.53
2019-01-26T21:34:38.480Z,32.87
2019-01-26T21:37:09.798Z,30.40
2019-01-26T21:39:40.888Z,27.47
2019-01-26T21:42:12.821Z,23.93
2019-01-26T21:44:44.035Z,30.30
2019-01-26T21:47:15.243Z,27.73
2019-01-26T21:49:46.424Z,26.93
2019-01-26T21:52:17.751Z,28.42
2019-01-26T21:54:48.926Z,28.00
2019-01-26T21:57:20.126Z,26.17
2019-01-26T21:59:51.323Z,24.57
2019-01-26T22:02:22.905Z,29.03
2019-01-26T22:04:54.137Z,25.83
2019-01-26T22:07:25.416Z,20.37
2019-01-26T22:09:56.805Z,27.27
2019-01-26T22:12:28.014Z,23.83
2019-01-26T22:14:59.218Z,23.87
2019-01-26T22:17:30.423Z,28.70
2019-01-26T22:20:01.706Z,23.77
2019-01-26T22:22:34.058Z,27.00
2019-01-26T22:25:06.945Z,23.77
2019-01-26T22:27:38.269Z,22.50
2019-01-26T22:30:13.442Z,22.90
2019-01-26T22:32:44.713Z,25.13
2019-01-26T22:35:16.122Z,24.57
2019-01-26T22:37:47.476Z,21.10
2019-01-26T22:40:29.907Z,20.67
2019-01-26T22:43:01.254Z,23.07
2019-01-26T22:45:32.809Z,19.77
2019-01-26T22:48:04.031Z,17.90
2019-01-26T22:50:35.330Z,17.70
2019-01-26T22:53:06.557Z,22.60
2019-01-26T22:55:37.785Z,21.13
2019-01-26T22:58:09.029Z,23.40
2019-01-26T23:01:09.316Z,19.47
2019-01-26T23:04:24.185Z,19.17
2019-01-26T23:07:24.400Z,18.83
2019-01-26T23:10:31.773Z,16.70
2019-01-26T23:13:39.952Z,19.33
2019-01-26T23:16:42.119Z,17.93
2019-01-26T23:19:47.735Z,16.17
2019-01-26T23:22:47.307Z,18.67
2019-01-26T23:25:52.523Z,16.70
2019-01-26T23:28:59.184Z,13.63
2019-01-26T23:31:30.388Z,13.97
2019-01-26T23:34:01.583Z,14.93
2019-01-26T23:36:32.780Z,17.90
2019-01-26T23:39:05.274Z,13.23
2019-01-26T23:41:36.937Z,10.03
2019-01-26T23:44:08.150Z,9.80
2019-01-26T23:46:39.372Z,10.90
2019-01-26T23:49:10.699Z,11.53
2019-01-26T23:51:41.905Z,9.57
2019-01-26T23:54:13.104Z,11.83
2019-01-26T23:56:44.312Z,11.73
2019-01-26T23:59:15.486Z,9.23
